Cofield, NC (27922)

3:00 AM EDT on April 26, 2015 (GMT -0400)
Nowell Farm Road | | Change Station
CLOSE
Current Station
Personal Weather Station
Location: Colerain, NC
Elevation: 75 ft
Nearby Weather Stations

Elev 75 ft 36.19 °N, 76.82 °W | Updated 1 second ago

Overcast
Overcast
50.5 °F
Feels Like 50.5 °F
N
3.6
Wind Variable Wind from WNW
Gusts 4.9 mph

Today
High -- | Low -- °F
--% Chance of Precip.
Yesterday
High -- | Low -- °F
Precip. -- in
6:20 AM 7:50 PM
First Quarter, 53% visible
Pressure 29.64 in
Visibility 3.0 miles
Clouds Overcast 400 ft
Dew Point 50 °F
Humidity 99%
Rainfall 0.00 in
Snow Depth Not available.
UV 0 out of 12
Pollen 8.90 out of 12
Air Quality Not available.
Flu Activity Sporadic
METAR KASJ 260635Z AUTO 01005KT 3SM DZ OVC004 08/07 A2964 RMK AO2 T00780073

More Conditions Fewer Conditions

Pressure 29.64 in
Visibility 3.0 miles
Clouds Overcast 400 ft
Dew Point 50 °F
Humidity 99%
Rainfall 0.00 in
Snow Depth Not available.
UV 0 out of 12
Pollen 8.90 out of 12
Air Quality Not available.
Flu Activity Sporadic
METAR KASJ 260635Z AUTO 01005KT 3SM DZ OVC004 08/07 A2964 RMK AO2 T00780073

More Conditions Fewer Conditions

The full scope of the disaster following a powerful 7.8-magnitude earthquake in Nepal may not come into view for days, but global charities are already sending emergency aid. Click to see how you can help.

10-Day Weather Forecast

Almanac

Astronomy

Apr. 26, 2015 Rise Set
Actual Time
Civil Twilight
Nautical Twilight
Astronomical Twilight
Moon
Length of Visible Light
Length of Day
Tomorrow will be .
, % of the Moon is Illuminated

Today's Extremes

State Highs State Lows

Community

WunderPhotos

Upload Photos

1,816,946 photos uploaded!

WunderBlogs® & News

Nearby

Air Quality

  Air Quality AQ Index Pollutant
Not available.

Snow Depth

Station Depth Elevation

Earthquake Activity

City Distance Mag. Time & Date
Minimum magnitude displayed is 2.5.

Coastal Water Temperatures

Place Temperature

Stations

Nearby Weather Stations

Station Location Temp. Windchill Dew Point Humidity Wind Precip. Elev Updated Type